sensor_id;sensor_type;location;lat;lon;timestamp;pressure;altitude;pressure_sealevel;temperature;humidity
59939;BME280;45801;51.810;19.444;2024-03-02T00:00:30;98577.25;;;8.97;73.33
59939;BME280;45801;51.810;19.444;2024-03-02T00:03:17;98577.73;;;8.96;73.33
59939;BME280;45801;51.810;19.444;2024-03-02T00:05:49;98579.32;;;8.96;73.27
59939;BME280;45801;51.810;19.444;2024-03-02T00:08:22;98576.01;;;8.96;73.49
59939;BME280;45801;51.810;19.444;2024-03-02T00:10:50;98571.66;;;8.97;73.40
59939;BME280;45801;51.810;19.444;2024-03-02T00:13:20;98572.21;;;8.98;73.41
59939;BME280;45801;51.810;19.444;2024-03-02T00:15:53;98572.77;;;8.98;73.16
59939;BME280;45801;51.810;19.444;2024-03-02T00:18:31;98565.77;;;8.98;73.12
59939;BME280;45801;51.810;19.444;2024-03-02T00:20:58;98564.66;;;8.97;73.07
59939;BME280;45801;51.810;19.444;2024-03-02T00:23:29;98569.04;;;8.97;72.90
59939;BME280;45801;51.810;19.444;2024-03-02T00:25:56;98573.43;;;8.97;72.95
59939;BME280;45801;51.810;19.444;2024-03-02T00:28:25;98579.62;;;8.99;73.05
59939;BME280;45801;51.810;19.444;2024-03-02T00:31:09;98581.59;;;9.00;72.96
59939;BME280;45801;51.810;19.444;2024-03-02T00:33:41;98581.45;;;9.02;73.10
59939;BME280;45801;51.810;19.444;2024-03-02T00:36:10;98581.19;;;9.04;72.87
59939;BME280;45801;51.810;19.444;2024-03-02T00:38:49;98580.81;;;9.03;72.89
59939;BME280;45801;51.810;19.444;2024-03-02T00:41:24;98575.01;;;9.02;72.88
59939;BME280;45801;51.810;19.444;2024-03-02T00:44:04;98571.02;;;9.03;72.87
59939;BME280;45801;51.810;19.444;2024-03-02T00:46:43;98570.77;;;9.06;73.08
59939;BME280;45801;51.810;19.444;2024-03-02T00:51:46;98568.52;;;9.07;72.52
59939;BME280;45801;51.810;19.444;2024-03-02T00:54:22;98565.64;;;9.04;72.70
59939;BME280;45801;51.810;19.444;2024-03-02T00:56:51;98560.88;;;9.03;72.82
59939;BME280;45801;51.810;19.444;2024-03-02T00:59:18;98559.85;;;9.03;72.95
59939;BME280;45801;51.810;19.444;2024-03-02T01:01:45;98562.33;;;9.04;72.92
59939;BME280;45801;51.810;19.444;2024-03-02T01:04:11;98562.86;;;9.05;72.99
59939;BME280;45801;51.810;19.444;2024-03-02T01:06:38;98563.44;;;9.06;73.01
59939;BME280;45801;51.810;19.444;2024-03-02T01:09:05;98563.02;;;9.08;72.75
59939;BME280;45801;51.810;19.444;2024-03-02T01:11:32;98563.23;;;9.10;72.99
59939;BME280;45801;51.810;19.444;2024-03-02T01:13:58;98563.70;;;9.13;73.03
59939;BME280;45801;51.810;19.444;2024-03-02T01:16:25;98560.73;;;9.13;72.88
59939;BME280;45801;51.810;19.444;2024-03-02T01:18:51;98564.02;;;9.12;72.64
59939;BME280;45801;51.810;19.444;2024-03-02T01:21:18;98563.73;;;9.13;72.63
59939;BME280;45801;51.810;19.444;2024-03-02T01:23:44;98563.89;;;9.13;72.58
59939;BME280;45801;51.810;19.444;2024-03-02T01:26:11;98561.38;;;9.11;72.38
59939;BME280;45801;51.810;19.444;2024-03-02T01:28:37;98561.60;;;9.08;72.62
59939;BME280;45801;51.810;19.444;2024-03-02T01:31:04;98561.02;;;9.07;72.69
59939;BME280;45801;51.810;19.444;2024-03-02T01:33:30;98558.69;;;9.05;72.72
59939;BME280;45801;51.810;19.444;2024-03-02T01:35:57;98562.88;;;9.14;73.42
59939;BME280;45801;51.810;19.444;2024-03-02T01:38:24;98561.79;;;9.46;74.13
59939;BME280;45801;51.810;19.444;2024-03-02T01:40:50;98560.90;;;9.79;73.76
59939;BME280;45801;51.810;19.444;2024-03-02T01:43:18;98560.52;;;9.88;72.02
59939;BME280;45801;51.810;19.444;2024-03-02T01:45:45;98561.90;;;9.83;71.90
59939;BME280;45801;51.810;19.444;2024-03-02T01:48:11;98558.91;;;9.78;72.41
59939;BME280;45801;51.810;19.444;2024-03-02T01:50:38;98556.95;;;9.72;72.19
59939;BME280;45801;51.810;19.444;2024-03-02T01:53:05;98558.65;;;9.65;71.76
59939;BME280;45801;51.810;19.444;2024-03-02T01:55:31;98558.77;;;9.59;71.71
59939;BME280;45801;51.810;19.444;2024-03-02T01:57:59;98556.96;;;9.53;71.75
59939;BME280;45801;51.810;19.444;2024-03-02T02:00:26;98554.71;;;9.48;71.78
59939;BME280;45801;51.810;19.444;2024-03-02T02:02:53;98553.84;;;9.44;71.70
59939;BME280;45801;51.810;19.444;2024-03-02T02:05:20;98548.71;;;9.37;72.00
59939;BME280;45801;51.810;19.444;2024-03-02T02:07:47;98545.41;;;9.33;71.95
59939;BME280;45801;51.810;19.444;2024-03-02T02:10:14;98547.95;;;9.31;72.16
59939;BME280;45801;51.810;19.444;2024-03-02T02:12:40;98548.49;;;9.31;72.14
59939;BME280;45801;51.810;19.444;2024-03-02T02:15:27;98550.36;;;9.29;72.20
59939;BME280;45801;51.810;19.444;2024-03-02T02:17:55;98554.29;;;9.27;72.18
59939;BME280;45801;51.810;19.444;2024-03-02T02:20:24;98550.94;;;9.27;72.20
59939;BME280;45801;51.810;19.444;2024-03-02T02:23:01;98544.48;;;9.27;72.30
59939;BME280;45801;51.810;19.444;2024-03-02T02:25:28;98542.92;;;9.27;72.41
59939;BME280;45801;51.810;19.444;2024-03-02T02:27:56;98538.30;;;9.29;72.33
59939;BME280;45801;51.810;19.444;2024-03-02T02:30:28;98537.79;;;9.30;72.11
59939;BME280;45801;51.810;19.444;2024-03-02T02:32:55;98534.23;;;9.28;72.25
59939;BME280;45801;51.810;19.444;2024-03-02T02:35:22;98530.21;;;9.28;72.26
59939;BME280;45801;51.810;19.444;2024-03-02T02:37:50;98524.13;;;9.29;72.01
59939;BME280;45801;51.810;19.444;2024-03-02T02:40:18;98526.22;;;9.29;72.12
59939;BME280;45801;51.810;19.444;2024-03-02T02:42:46;98524.09;;;9.28;71.95
59939;BME280;45801;51.810;19.444;2024-03-02T02:45:13;98525.85;;;9.28;72.06
59939;BME280;45801;51.810;19.444;2024-03-02T02:47:41;98523.95;;;9.29;72.01
59939;BME280;45801;51.810;19.444;2024-03-02T02:50:10;98518.58;;;9.30;72.00
59939;BME280;45801;51.810;19.444;2024-03-02T02:52:39;98519.45;;;9.30;71.84
59939;BME280;45801;51.810;19.444;2024-03-02T02:55:10;98519.42;;;9.30;71.96
59939;BME280;45801;51.810;19.444;2024-03-02T02:57:41;98513.25;;;9.28;72.07
59939;BME280;45801;51.810;19.444;2024-03-02T03:00:18;98511.41;;;9.26;71.63
59939;BME280;45801;51.810;19.444;2024-03-02T03:02:48;98511.25;;;9.21;71.79
59939;BME280;45801;51.810;19.444;2024-03-02T03:05:18;98514.14;;;9.18;71.85
59939;BME280;45801;51.810;19.444;2024-03-02T03:07:44;98516.65;;;9.16;71.87
59939;BME280;45801;51.810;19.444;2024-03-02T03:10:11;98514.82;;;9.13;71.96
59939;BME280;45801;51.810;19.444;2024-03-02T03:12:38;98517.59;;;9.13;72.09
59939;BME280;45801;51.810;19.444;2024-03-02T03:15:05;98520.56;;;9.13;72.07
59939;BME280;45801;51.810;19.444;2024-03-02T03:17:33;98519.48;;;9.12;72.34
59939;BME280;45801;51.810;19.444;2024-03-02T03:19:59;98513.16;;;9.11;72.32
59939;BME280;45801;51.810;19.444;2024-03-02T03:22:27;98513.88;;;9.12;72.25
59939;BME280;45801;51.810;19.444;2024-03-02T03:24:54;98516.86;;;9.12;72.14
59939;BME280;45801;51.810;19.444;2024-03-02T03:27:20;98512.55;;;9.14;72.16
59939;BME280;45801;51.810;19.444;2024-03-02T03:29:47;98516.05;;;9.14;72.25
59939;BME280;45801;51.810;19.444;2024-03-02T03:32:13;98519.73;;;9.14;72.20
59939;BME280;45801;51.810;19.444;2024-03-02T03:34:40;98516.39;;;9.14;72.34
59939;BME280;45801;51.810;19.444;2024-03-02T03:37:07;98520.17;;;9.12;72.31
59939;BME280;45801;51.810;19.444;2024-03-02T03:39:34;98517.52;;;9.11;72.31
59939;BME280;45801;51.810;19.444;2024-03-02T03:42:02;98518.77;;;9.12;72.27
59939;BME280;45801;51.810;19.444;2024-03-02T03:44:29;98514.24;;;9.12;72.46
59939;BME280;45801;51.810;19.444;2024-03-02T03:46:55;98511.18;;;9.15;72.33
59939;BME280;45801;51.810;19.444;2024-03-02T03:49:22;98510.21;;;9.17;72.21
59939;BME280;45801;51.810;19.444;2024-03-02T03:51:48;98508.47;;;9.17;72.24
59939;BME280;45801;51.810;19.444;2024-03-02T03:54:15;98506.59;;;9.18;72.41
59939;BME280;45801;51.810;19.444;2024-03-02T03:56:42;98502.60;;;9.18;72.19
59939;BME280;45801;51.810;19.444;2024-03-02T03:59:08;98502.98;;;9.19;72.09
59939;BME280;45801;51.810;19.444;2024-03-02T04:01:35;98502.29;;;9.20;72.01
59939;BME280;45801;51.810;19.444;2024-03-02T04:04:02;98504.57;;;9.20;72.06
59939;BME280;45801;51.810;19.444;2024-03-02T04:06:30;98503.95;;;9.18;72.00
59939;BME280;45801;51.810;19.444;2024-03-02T04:08:56;98505.91;;;9.18;72.15
59939;BME280;45801;51.810;19.444;2024-03-02T04:11:23;98505.81;;;9.21;72.04
59939;BME280;45801;51.810;19.444;2024-03-02T04:13:49;98507.25;;;9.22;71.84
59939;BME280;45801;51.810;19.444;2024-03-02T04:16:17;98507.09;;;9.22;71.89
59939;BME280;45801;51.810;19.444;2024-03-02T04:18:44;98510.13;;;9.24;71.70
59939;BME280;45801;51.810;19.444;2024-03-02T04:21:10;98511.84;;;9.23;71.76
59939;BME280;45801;51.810;19.444;2024-03-02T04:23:38;98510.29;;;9.24;72.01
59939;BME280;45801;51.810;19.444;2024-03-02T04:26:05;98507.14;;;9.24;71.81
59939;BME280;45801;51.810;19.444;2024-03-02T04:28:31;98503.63;;;9.23;71.89
59939;BME280;45801;51.810;19.444;2024-03-02T04:30:59;98503.27;;;9.23;71.82
59939;BME280;45801;51.810;19.444;2024-03-02T04:33:25;98502.38;;;9.22;71.78
59939;BME280;45801;51.810;19.444;2024-03-02T04:35:52;98501.99;;;9.21;71.85
59939;BME280;45801;51.810;19.444;2024-03-02T04:38:19;98505.55;;;9.18;71.87
59939;BME280;45801;51.810;19.444;2024-03-02T04:40:45;98504.56;;;9.15;71.71
59939;BME280;45801;51.810;19.444;2024-03-02T04:43:12;98501.67;;;9.12;71.45
59939;BME280;45801;51.810;19.444;2024-03-02T04:45:42;98504.17;;;9.09;71.73
59939;BME280;45801;51.810;19.444;2024-03-02T04:48:10;98516.27;;;9.06;71.50
59939;BME280;45801;51.810;19.444;2024-03-02T04:50:36;98518.40;;;9.02;71.67
59939;BME280;45801;51.810;19.444;2024-03-02T04:53:04;98521.27;;;8.99;71.84
59939;BME280;45801;51.810;19.444;2024-03-02T04:55:31;98523.24;;;8.96;71.62
59939;BME280;45801;51.810;19.444;2024-03-02T04:58:00;98523.39;;;8.91;71.80
59939;BME280;45801;51.810;19.444;2024-03-02T05:00:27;98521.73;;;8.89;71.84
59939;BME280;45801;51.810;19.444;2024-03-02T05:02:53;98520.30;;;8.88;71.80
59939;BME280;45801;51.810;19.444;2024-03-02T05:05:20;98524.39;;;8.85;71.90
59939;BME280;45801;51.810;19.444;2024-03-02T05:07:46;98523.90;;;8.86;72.22
59939;BME280;45801;51.810;19.444;2024-03-02T05:10:13;98530.77;;;8.87;72.24
59939;BME280;45801;51.810;19.444;2024-03-02T05:12:41;98531.27;;;8.87;72.19
59939;BME280;45801;51.810;19.444;2024-03-02T05:15:12;98530.00;;;8.86;72.16
59939;BME280;45801;51.810;19.444;2024-03-02T05:17:40;98529.84;;;8.86;72.39
59939;BME280;45801;51.810;19.444;2024-03-02T05:20:10;98531.80;;;8.87;72.09
59939;BME280;45801;51.810;19.444;2024-03-02T05:22:37;98530.35;;;8.86;72.16
59939;BME280;45801;51.810;19.444;2024-03-02T05:25:04;98529.77;;;8.84;72.36
59939;BME280;45801;51.810;19.444;2024-03-02T05:27:31;98529.91;;;8.83;72.22
59939;BME280;45801;51.810;19.444;2024-03-02T05:29:59;98534.27;;;8.83;72.09
59939;BME280;45801;51.810;19.444;2024-03-02T05:32:26;98538.48;;;8.79;72.02
59939;BME280;45801;51.810;19.444;2024-03-02T05:34:54;98541.52;;;8.76;72.06
59939;BME280;45801;51.810;19.444;2024-03-02T05:37:21;98538.77;;;8.73;72.14
59939;BME280;45801;51.810;19.444;2024-03-02T05:39:48;98540.48;;;8.72;72.27
59939;BME280;45801;51.810;19.444;2024-03-02T05:42:15;98548.98;;;8.71;72.40
59939;BME280;45801;51.810;19.444;2024-03-02T05:44:43;98550.00;;;8.70;72.43
59939;BME280;45801;51.810;19.444;2024-03-02T05:47:09;98548.42;;;8.70;72.35
59939;BME280;45801;51.810;19.444;2024-03-02T05:49:36;98550.10;;;8.68;72.17
59939;BME280;45801;51.810;19.444;2024-03-02T05:52:03;98551.94;;;8.66;72.08
59939;BME280;45801;51.810;19.444;2024-03-02T05:54:30;98551.98;;;8.63;72.28
59939;BME280;45801;51.810;19.444;2024-03-02T05:56:56;98555.75;;;8.61;72.34
59939;BME280;45801;51.810;19.444;2024-03-02T05:59:23;98555.58;;;8.61;72.50
59939;BME280;45801;51.810;19.444;2024-03-02T06:01:49;98557.16;;;8.61;72.67
59939;BME280;45801;51.810;19.444;2024-03-02T06:04:19;98555.05;;;8.61;72.71
59939;BME280;45801;51.810;19.444;2024-03-02T06:06:46;98557.89;;;8.62;72.40
59939;BME280;45801;51.810;19.444;2024-03-02T06:09:12;98557.73;;;8.62;72.53
59939;BME280;45801;51.810;19.444;2024-03-02T06:11:40;98561.58;;;8.62;72.57
59939;BME280;45801;51.810;19.444;2024-03-02T06:14:08;98564.34;;;8.62;72.70
59939;BME280;45801;51.810;19.444;2024-03-02T06:16:35;98566.61;;;8.62;72.60
59939;BME280;45801;51.810;19.444;2024-03-02T06:19:02;98564.34;;;8.62;72.63
59939;BME280;45801;51.810;19.444;2024-03-02T06:21:28;98567.52;;;8.63;72.62
59939;BME280;45801;51.810;19.444;2024-03-02T06:23:55;98568.28;;;8.64;72.68
59939;BME280;45801;51.810;19.444;2024-03-02T06:26:23;98572.58;;;8.67;72.75
59939;BME280;45801;51.810;19.444;2024-03-02T06:28:49;98562.80;;;8.67;72.73
59939;BME280;45801;51.810;19.444;2024-03-02T06:31:17;98564.55;;;8.67;72.46
59939;BME280;45801;51.810;19.444;2024-03-02T06:33:43;98565.09;;;8.68;72.91
59939;BME280;45801;51.810;19.444;2024-03-02T06:36:10;98566.40;;;8.70;72.82
59939;BME280;45801;51.810;19.444;2024-03-02T06:38:38;98566.95;;;8.71;72.85
59939;BME280;45801;51.810;19.444;2024-03-02T06:41:07;98571.91;;;8.73;72.80
59939;BME280;45801;51.810;19.444;2024-03-02T06:43:34;98576.13;;;8.73;72.86
59939;BME280;45801;51.810;19.444;2024-03-02T06:46:00;98577.86;;;8.73;73.03
59939;BME280;45801;51.810;19.444;2024-03-02T06:48:27;98579.70;;;8.75;72.85
59939;BME280;45801;51.810;19.444;2024-03-02T06:50:56;98580.76;;;8.75;72.63
59939;BME280;45801;51.810;19.444;2024-03-02T06:53:23;98578.38;;;8.77;72.69
59939;BME280;45801;51.810;19.444;2024-03-02T06:55:50;98580.45;;;8.77;72.72
59939;BME280;45801;51.810;19.444;2024-03-02T06:58:16;98579.19;;;8.75;72.63
59939;BME280;45801;51.810;19.444;2024-03-02T07:00:43;98584.48;;;8.77;72.86
59939;BME280;45801;51.810;19.444;2024-03-02T07:03:14;98591.19;;;8.78;72.86
59939;BME280;45801;51.810;19.444;2024-03-02T07:05:42;98596.15;;;8.80;72.72
59939;BME280;45801;51.810;19.444;2024-03-02T07:08:09;98600.42;;;8.82;72.80
59939;BME280;45801;51.810;19.444;2024-03-02T07:10:36;98599.67;;;8.85;72.77
59939;BME280;45801;51.810;19.444;2024-03-02T07:13:03;98598.41;;;8.89;72.68
59939;BME280;45801;51.810;19.444;2024-03-02T07:15:30;98594.62;;;8.90;72.52
59939;BME280;45801;51.810;19.444;2024-03-02T07:18:13;98596.47;;;8.89;72.72
59939;BME280;45801;51.810;19.444;2024-03-02T07:20:40;98603.02;;;8.91;72.90
59939;BME280;45801;51.810;19.444;2024-03-02T07:23:07;98604.20;;;8.94;72.98
59939;BME280;45801;51.810;19.444;2024-03-02T07:25:33;98607.27;;;8.96;72.88
59939;BME280;45801;51.810;19.444;2024-03-02T07:28:00;98611.15;;;8.97;72.65
59939;BME280;45801;51.810;19.444;2024-03-02T07:30:27;98609.14;;;8.99;72.63
59939;BME280;45801;51.810;19.444;2024-03-02T07:32:54;98607.33;;;9.02;72.64
59939;BME280;45801;51.810;19.444;2024-03-02T07:35:21;98607.27;;;9.05;72.58
59939;BME280;45801;51.810;19.444;2024-03-02T07:37:48;98609.21;;;9.06;72.52
59939;BME280;45801;51.810;19.444;2024-03-02T07:40:16;98611.19;;;9.07;72.72
59939;BME280;45801;51.810;19.444;2024-03-02T07:42:42;98611.30;;;9.10;72.66
59939;BME280;45801;51.810;19.444;2024-03-02T07:45:09;98614.34;;;9.12;72.57
59939;BME280;45801;51.810;19.444;2024-03-02T07:47:36;98614.44;;;9.14;72.45
59939;BME280;45801;51.810;19.444;2024-03-02T07:50:04;98613.08;;;9.20;72.49
59939;BME280;45801;51.810;19.444;2024-03-02T07:52:33;98615.42;;;9.22;72.42
59939;BME280;45801;51.810;19.444;2024-03-02T07:54:59;98611.95;;;9.23;72.13
59939;BME280;45801;51.810;19.444;2024-03-02T07:57:26;98616.21;;;9.24;72.15
59939;BME280;45801;51.810;19.444;2024-03-02T07:59:53;98624.19;;;9.27;72.32
59939;BME280;45801;51.810;19.444;2024-03-02T08:02:20;98623.22;;;9.29;72.29
59939;BME280;45801;51.810;19.444;2024-03-02T08:04:46;98622.31;;;9.33;72.28
59939;BME280;45801;51.810;19.444;2024-03-02T08:07:13;98627.02;;;9.37;72.44
59939;BME280;45801;51.810;19.444;2024-03-02T08:09:40;98633.70;;;9.43;72.37
59939;BME280;45801;51.810;19.444;2024-03-02T08:12:06;98630.77;;;9.48;72.26
59939;BME280;45801;51.810;19.444;2024-03-02T08:14:33;98634.11;;;9.54;72.54
59939;BME280;45801;51.810;19.444;2024-03-02T08:17:00;98636.21;;;9.59;72.33
59939;BME280;45801;51.810;19.444;2024-03-02T08:19:28;98640.30;;;9.65;72.21
59939;BME280;45801;51.810;19.444;2024-03-02T08:21:55;98643.85;;;9.71;71.92
59939;BME280;45801;51.810;19.444;2024-03-02T08:24:21;98638.59;;;9.76;71.88
59939;BME280;45801;51.810;19.444;2024-03-02T08:26:48;98636.01;;;9.82;71.91
59939;BME280;45801;51.810;19.444;2024-03-02T08:29:14;98630.60;;;9.86;71.94
59939;BME280;45801;51.810;19.444;2024-03-02T08:31:41;98634.77;;;9.90;72.03
59939;BME280;45801;51.810;19.444;2024-03-02T08:34:07;98637.05;;;9.96;72.10
59939;BME280;45801;51.810;19.444;2024-03-02T08:36:36;98638.80;;;10.01;71.69
59939;BME280;45801;51.810;19.444;2024-03-02T08:39:03;98641.04;;;10.04;71.47
59939;BME280;45801;51.810;19.444;2024-03-02T08:41:33;98638.54;;;10.08;71.59
59939;BME280;45801;51.810;19.444;2024-03-02T08:44:00;98637.09;;;10.12;71.37
59939;BME280;45801;51.810;19.444;2024-03-02T08:46:26;98638.46;;;10.16;71.41
59939;BME280;45801;51.810;19.444;2024-03-02T08:48:53;98636.35;;;10.21;71.31
59939;BME280;45801;51.810;19.444;2024-03-02T08:51:20;98632.80;;;10.24;71.19
59939;BME280;45801;51.810;19.444;2024-03-02T08:53:46;98630.27;;;10.27;71.33
59939;BME280;45801;51.810;19.444;2024-03-02T08:56:13;98631.95;;;10.30;71.00
59939;BME280;45801;51.810;19.444;2024-03-02T08:58:40;98632.33;;;10.31;70.91
59939;BME280;45801;51.810;19.444;2024-03-02T09:01:07;98635.51;;;10.31;70.96
59939;BME280;45801;51.810;19.444;2024-03-02T09:03:34;98638.26;;;10.34;71.12
59939;BME280;45801;51.810;19.444;2024-03-02T09:06:02;98638.59;;;10.39;71.05
59939;BME280;45801;51.810;19.444;2024-03-02T09:08:28;98637.89;;;10.44;70.75
59939;BME280;45801;51.810;19.444;2024-03-02T09:10:56;98635.02;;;10.48;70.84
59939;BME280;45801;51.810;19.444;2024-03-02T09:13:22;98638.17;;;10.53;70.76
59939;BME280;45801;51.810;19.444;2024-03-02T09:15:49;98641.00;;;10.58;70.94
59939;BME280;45801;51.810;19.444;2024-03-02T09:18:16;98640.81;;;10.63;70.74
59939;BME280;45801;51.810;19.444;2024-03-02T09:20:42;98646.20;;;10.67;70.56
59939;BME280;45801;51.810;19.444;2024-03-02T09:23:09;98649.15;;;10.72;70.39
59939;BME280;45801;51.810;19.444;2024-03-02T09:25:36;98648.39;;;10.75;70.14
59939;BME280;45801;51.810;19.444;2024-03-02T09:28:03;98646.38;;;10.77;70.24
59939;BME280;45801;51.810;19.444;2024-03-02T09:30:33;98647.02;;;10.81;69.86
59939;BME280;45801;51.810;19.444;2024-03-02T09:32:59;98647.09;;;10.84;69.75
59939;BME280;45801;51.810;19.444;2024-03-02T09:35:28;98646.55;;;10.89;70.11
59939;BME280;45801;51.810;19.444;2024-03-02T09:37:56;98645.44;;;10.92;69.95
59939;BME280;45801;51.810;19.444;2024-03-02T09:40:22;98644.46;;;10.94;69.69
59939;BME280;45801;51.810;19.444;2024-03-02T09:42:49;98644.77;;;10.98;69.71
59939;BME280;45801;51.810;19.444;2024-03-02T09:45:23;98642.43;;;11.02;69.74
59939;BME280;45801;51.810;19.444;2024-03-02T09:47:51;98642.15;;;11.05;69.49
59939;BME280;45801;51.810;19.444;2024-03-02T09:50:17;98638.13;;;11.05;69.27
59939;BME280;45801;51.810;19.444;2024-03-02T09:52:48;98638.29;;;11.05;69.55
59939;BME280;45801;51.810;19.444;2024-03-02T09:55:15;98636.71;;;11.04;69.38
59939;BME280;45801;51.810;19.444;2024-03-02T09:57:42;98642.75;;;11.07;69.44
59939;BME280;45801;51.810;19.444;2024-03-02T10:00:09;98643.61;;;11.06;69.31
59939;BME280;45801;51.810;19.444;2024-03-02T10:02:41;98641.59;;;11.03;69.07
59939;BME280;45801;51.810;19.444;2024-03-02T10:05:09;98639.63;;;11.02;69.36
59939;BME280;45801;51.810;19.444;2024-03-02T10:07:35;98643.69;;;11.03;69.49
59939;BME280;45801;51.810;19.444;2024-03-02T10:10:13;98643.21;;;11.05;69.43
59939;BME280;45801;51.810;19.444;2024-03-02T10:12:40;98642.73;;;11.06;69.63
59939;BME280;45801;51.810;19.444;2024-03-02T10:15:07;98641.23;;;11.20;70.10
59939;BME280;45801;51.810;19.444;2024-03-02T10:17:35;98635.77;;;11.42;70.53
59939;BME280;45801;51.810;19.444;2024-03-02T10:20:23;98636.20;;;11.68;70.31
59939;BME280;45801;51.810;19.444;2024-03-02T10:22:56;98631.11;;;11.92;69.48
59939;BME280;45801;51.810;19.444;2024-03-02T10:25:35;98628.34;;;11.99;68.07
59939;BME280;45801;51.810;19.444;2024-03-02T10:28:02;98627.41;;;11.98;67.88
59939;BME280;45801;51.810;19.444;2024-03-02T10:30:36;98627.55;;;11.96;67.97
59939;BME280;45801;51.810;19.444;2024-03-02T10:33:03;98622.64;;;11.96;68.00
59939;BME280;45801;51.810;19.444;2024-03-02T10:35:32;98619.68;;;11.97;68.03
59939;BME280;45801;51.810;19.444;2024-03-02T10:37:59;98619.11;;;11.96;68.11
59939;BME280;45801;51.810;19.444;2024-03-02T10:40:29;98621.57;;;11.95;67.62
59939;BME280;45801;51.810;19.444;2024-03-02T10:42:56;98623.15;;;11.95;67.52
59939;BME280;45801;51.810;19.444;2024-03-02T10:45:23;98624.37;;;11.95;67.47
59939;BME280;45801;51.810;19.444;2024-03-02T10:47:50;98624.16;;;11.94;67.72
59939;BME280;45801;51.810;19.444;2024-03-02T10:50:17;98626.61;;;11.94;67.87
59939;BME280;45801;51.810;19.444;2024-03-02T10:52:44;98628.66;;;11.92;67.75
59939;BME280;45801;51.810;19.444;2024-03-02T10:55:11;98625.73;;;11.94;67.62
59939;BME280;45801;51.810;19.444;2024-03-02T10:57:53;98623.88;;;11.96;67.22
59939;BME280;45801;51.810;19.444;2024-03-02T11:00:20;98623.88;;;11.96;67.01
59939;BME280;45801;51.810;19.444;2024-03-02T11:02:56;98616.34;;;11.96;67.12
59939;BME280;45801;51.810;19.444;2024-03-02T11:05:27;98616.52;;;11.97;67.30
59939;BME280;45801;51.810;19.444;2024-03-02T11:08:00;98614.11;;;11.98;67.03
59939;BME280;45801;51.810;19.444;2024-03-02T11:10:34;98614.10;;;11.98;66.99
59939;BME280;45801;51.810;19.444;2024-03-02T11:13:05;98612.17;;;11.98;66.96
59939;BME280;45801;51.810;19.444;2024-03-02T11:15:35;98612.19;;;11.99;66.72
59939;BME280;45801;51.810;19.444;2024-03-02T11:18:04;98614.34;;;12.00;66.75
59939;BME280;45801;51.810;19.444;2024-03-02T11:20:39;98611.72;;;12.01;66.91
59939;BME280;45801;51.810;19.444;2024-03-02T11:23:07;98609.34;;;12.03;67.01
59939;BME280;45801;51.810;19.444;2024-03-02T11:25:35;98610.64;;;12.07;66.99
59939;BME280;45801;51.810;19.444;2024-03-02T11:28:04;98608.57;;;12.08;67.26
59939;BME280;45801;51.810;19.444;2024-03-02T11:33:05;98602.39;;;12.13;67.10
59939;BME280;45801;51.810;19.444;2024-03-02T11:35:45;98606.77;;;12.19;67.24
59939;BME280;45801;51.810;19.444;2024-03-02T11:38:15;98606.79;;;12.27;66.80
59939;BME280;45801;51.810;19.444;2024-03-02T11:40:42;98607.70;;;12.28;66.82
59939;BME280;45801;51.810;19.444;2024-03-02T11:43:09;98605.93;;;12.27;66.66
59939;BME280;45801;51.810;19.444;2024-03-02T11:45:36;98601.17;;;12.27;66.67
59939;BME280;45801;51.810;19.444;2024-03-02T11:48:06;98605.60;;;12.28;66.85
59939;BME280;45801;51.810;19.444;2024-03-02T11:50:36;98603.14;;;12.28;66.04
59939;BME280;45801;51.810;19.444;2024-03-02T11:53:09;98602.54;;;12.32;66.96
59939;BME280;45801;51.810;19.444;2024-03-02T11:55:37;98600.70;;;12.49;67.24
59939;BME280;45801;51.810;19.444;2024-03-02T11:58:06;98598.83;;;12.58;66.48
59939;BME280;45801;51.810;19.444;2024-03-02T12:00:33;98600.79;;;12.60;66.57
59939;BME280;45801;51.810;19.444;2024-03-02T12:03:13;98598.61;;;12.56;65.44
59939;BME280;45801;51.810;19.444;2024-03-02T12:05:40;98602.33;;;12.51;65.74
59939;BME280;45801;51.810;19.444;2024-03-02T12:08:07;98602.81;;;12.49;66.02
59939;BME280;45801;51.810;19.444;2024-03-02T12:10:35;98607.15;;;12.47;65.68
59939;BME280;45801;51.810;19.444;2024-03-02T12:13:04;98605.20;;;12.47;65.70
59939;BME280;45801;51.810;19.444;2024-03-02T12:15:34;98608.67;;;12.45;65.45
59939;BME280;45801;51.810;19.444;2024-03-02T12:18:01;98607.71;;;12.42;65.10
59939;BME280;45801;51.810;19.444;2024-03-02T12:20:30;98606.92;;;12.38;65.24
59939;BME280;45801;51.810;19.444;2024-03-02T12:23:02;98601.36;;;12.34;65.39
59939;BME280;45801;51.810;19.444;2024-03-02T12:25:32;98603.08;;;12.32;64.91
59939;BME280;45801;51.810;19.444;2024-03-02T12:28:02;98602.10;;;12.29;64.75
59939;BME280;45801;51.810;19.444;2024-03-02T12:30:30;98600.61;;;12.26;65.05
59939;BME280;45801;51.810;19.444;2024-03-02T12:32:57;98600.04;;;12.23;64.91
59939;BME280;45801;51.810;19.444;2024-03-02T12:35:25;98604.20;;;12.22;64.97
59939;BME280;45801;51.810;19.444;2024-03-02T12:37:54;98605.80;;;12.22;65.37
59939;BME280;45801;51.810;19.444;2024-03-02T12:40:21;98603.52;;;12.22;65.22
59939;BME280;45801;51.810;19.444;2024-03-02T12:42:49;98602.48;;;12.23;65.41
59939;BME280;45801;51.810;19.444;2024-03-02T12:45:16;98599.32;;;12.23;65.10
59939;BME280;45801;51.810;19.444;2024-03-02T12:47:51;98598.55;;;12.21;65.13
59939;BME280;45801;51.810;19.444;2024-03-02T12:50:18;98599.11;;;12.22;65.38
59939;BME280;45801;51.810;19.444;2024-03-02T12:52:52;98594.22;;;12.23;65.23
59939;BME280;45801;51.810;19.444;2024-03-02T12:55:20;98590.21;;;12.24;65.23
59939;BME280;45801;51.810;19.444;2024-03-02T12:57:52;98594.65;;;12.26;65.24
59939;BME280;45801;51.810;19.444;2024-03-02T13:00:20;98590.85;;;12.28;65.34
59939;BME280;45801;51.810;19.444;2024-03-02T13:02:50;98586.81;;;12.28;65.11
59939;BME280;45801;51.810;19.444;2024-03-02T13:05:17;98584.54;;;12.29;64.75
59939;BME280;45801;51.810;19.444;2024-03-02T13:07:43;98582.25;;;12.28;65.15